createdAt,value
2019-05-16T00:00:00.874Z,0.00
2019-05-16T00:01:00.769Z,0.00
2019-05-16T00:02:01.486Z,0.00
2019-05-16T00:03:00.595Z,0.00
2019-05-16T00:04:00.626Z,0.00
2019-05-16T00:05:00.442Z,0.00
2019-05-16T00:06:00.435Z,0.00
2019-05-16T00:07:00.258Z,0.00
2019-05-16T00:08:00.249Z,0.00
2019-05-16T00:09:00.090Z,0.00
2019-05-16T00:10:00.116Z,0.00
2019-05-16T00:10:59.921Z,0.00
2019-05-16T00:11:59.872Z,0.00
2019-05-16T00:12:59.912Z,0.00
2019-05-16T00:13:59.876Z,0.00
2019-05-16T00:14:59.599Z,0.00
2019-05-16T00:15:59.683Z,0.00
2019-05-16T00:16:59.424Z,0.00
2019-05-16T00:17:59.333Z,0.00
2019-05-16T00:18:59.294Z,0.00
2019-05-16T00:19:59.180Z,0.00
2019-05-16T00:20:59.089Z,0.00
2019-05-16T00:21:59.108Z,0.00
2019-05-16T00:22:59.164Z,0.00
2019-05-16T00:23:58.829Z,0.00
2019-05-16T00:24:58.967Z,0.00
2019-05-16T00:25:58.807Z,0.00
2019-05-16T00:26:58.586Z,0.00
2019-05-16T00:27:58.891Z,0.00
2019-05-16T00:28:58.917Z,0.00
2019-05-16T00:29:58.344Z,0.00
2019-05-16T00:30:59.120Z,0.00
2019-05-16T00:31:58.161Z,0.00
2019-05-16T00:32:58.778Z,0.00
2019-05-16T00:33:58.163Z,0.00
2019-05-16T00:34:58.449Z,0.00
2019-05-16T00:36:03.544Z,0.00
2019-05-16T00:36:58.164Z,0.00
2019-05-16T00:37:58.936Z,0.00
2019-05-16T00:38:57.955Z,0.00
2019-05-16T00:39:58.858Z,0.00
2019-05-16T00:40:59.116Z,0.00
2019-05-16T00:41:58.396Z,0.00
2019-05-16T00:42:58.849Z,0.00
2019-05-16T00:43:57.732Z,0.00
2019-05-16T00:44:58.369Z,0.00
2019-05-16T00:45:58.756Z,0.00
2019-05-16T00:46:58.109Z,0.00
2019-05-16T00:47:58.489Z,0.00
2019-05-16T00:48:58.769Z,0.00
2019-05-16T00:49:58.243Z,0.00
2019-05-16T00:50:58.388Z,0.00
2019-05-16T00:51:58.313Z,0.00
2019-05-16T00:52:58.691Z,0.00
2019-05-16T00:53:58.692Z,0.00
2019-05-16T00:54:57.989Z,0.00
2019-05-16T00:55:58.371Z,0.00
2019-05-16T00:56:57.825Z,0.00
2019-05-16T00:57:58.194Z,0.00
2019-05-16T00:58:55.893Z,0.00
2019-05-16T00:59:55.915Z,0.00
2019-05-16T01:00:55.723Z,0.00
2019-05-16T01:01:55.686Z,0.00
2019-05-16T01:02:57.746Z,0.00
2019-05-16T01:03:55.469Z,0.00
2019-05-16T01:04:55.535Z,0.00
2019-05-16T01:05:55.304Z,0.00
2019-05-16T01:06:55.228Z,0.00
2019-05-16T01:07:55.314Z,0.00
2019-05-16T01:08:55.049Z,0.00
2019-05-16T01:09:55.123Z,0.00
2019-05-16T01:10:54.898Z,0.00
2019-05-16T01:11:54.930Z,0.00
2019-05-16T01:12:54.722Z,0.00
2019-05-16T01:13:54.637Z,0.00
2019-05-16T01:14:54.747Z,0.00
2019-05-16T01:15:54.476Z,0.00
2019-05-16T01:16:54.378Z,0.00
2019-05-16T01:17:54.358Z,0.00
2019-05-16T01:18:54.213Z,0.00
2019-05-16T01:19:54.166Z,0.00
2019-05-16T01:20:54.057Z,0.00
2019-05-16T01:21:54.184Z,0.00
2019-05-16T01:22:53.876Z,0.00
2019-05-16T01:23:53.989Z,0.00
2019-05-16T01:24:53.705Z,0.00
2019-05-16T01:25:53.844Z,0.00
2019-05-16T01:26:53.541Z,0.00
2019-05-16T01:27:53.604Z,0.00
2019-05-16T01:28:53.370Z,0.00
2019-05-16T01:29:53.285Z,0.00
2019-05-16T01:30:53.245Z,0.00
2019-05-16T01:31:53.126Z,0.00
2019-05-16T01:32:53.041Z,0.00
2019-05-16T01:33:53.032Z,0.00
2019-05-16T01:34:52.870Z,0.00
2019-05-16T01:35:52.883Z,0.00
2019-05-16T01:36:52.697Z,0.00
2019-05-16T01:37:52.626Z,0.00
2019-05-16T01:38:52.532Z,0.00
2019-05-16T01:39:52.662Z,0.00
2019-05-16T01:40:52.378Z,0.00
2019-05-16T01:41:52.471Z,0.00
2019-05-16T01:42:52.194Z,0.00
2019-05-16T01:43:52.274Z,0.00
2019-05-16T01:44:52.030Z,0.00
2019-05-16T01:45:52.122Z,0.00
2019-05-16T01:46:51.864Z,0.00
2019-05-16T01:47:51.894Z,0.00
2019-05-16T01:48:51.689Z,0.00
2019-05-16T01:49:51.700Z,0.00
2019-05-16T01:50:51.519Z,0.00
2019-05-16T01:51:51.540Z,0.00
2019-05-16T01:52:51.357Z,0.00
2019-05-16T01:53:51.275Z,0.00
2019-05-16T01:54:51.324Z,0.00
2019-05-16T01:55:51.126Z,0.00
2019-05-16T01:56:51.030Z,0.00
2019-05-16T01:57:51.142Z,0.00
2019-05-16T01:58:50.850Z,0.00
2019-05-16T01:59:50.771Z,0.00
2019-05-16T02:01:02.131Z,0.00
2019-05-16T02:01:50.614Z,0.00
2019-05-16T02:02:50.513Z,0.00
2019-05-16T02:03:50.566Z,0.00
2019-05-16T02:04:50.340Z,0.00
2019-05-16T02:05:50.257Z,0.00
2019-05-16T02:06:54.442Z,0.00
2019-05-16T02:07:50.087Z,0.00
2019-05-16T02:08:50.008Z,0.00
2019-05-16T02:09:49.998Z,0.00
2019-05-16T02:10:49.843Z,0.00
2019-05-16T02:11:49.843Z,0.00
2019-05-16T02:12:49.666Z,0.00
2019-05-16T02:13:49.586Z,0.00
2019-05-16T02:14:49.618Z,0.00
2019-05-16T02:15:49.416Z,0.00
2019-05-16T02:16:49.337Z,0.00
2019-05-16T02:17:49.466Z,0.00
2019-05-16T02:18:49.163Z,0.00
2019-05-16T02:19:49.088Z,0.00
2019-05-16T02:20:48.997Z,0.00
2019-05-16T02:21:50.704Z,0.00
2019-05-16T02:22:48.845Z,0.00
2019-05-16T02:23:51.603Z,0.00
2019-05-16T02:24:48.657Z,0.00
2019-05-16T02:25:49.187Z,0.00
2019-05-16T02:26:49.332Z,0.00
2019-05-16T02:27:48.981Z,0.00
2019-05-16T02:28:50.766Z,0.00
2019-05-16T02:29:50.580Z,0.00
2019-05-16T02:30:51.469Z,0.00
2019-05-16T02:31:51.116Z,0.00
2019-05-16T02:32:51.873Z,0.00
2019-05-16T02:33:50.815Z,0.00
2019-05-16T02:34:47.902Z,0.00
2019-05-16T02:35:54.812Z,0.00
2019-05-16T02:37:08.284Z,0.00
2019-05-16T02:37:47.776Z,0.00
2019-05-16T02:38:50.882Z,0.00
2019-05-16T02:39:47.408Z,0.00
2019-05-16T02:40:47.329Z,0.00
2019-05-16T02:41:47.238Z,0.00
2019-05-16T02:42:47.160Z,0.00
2019-05-16T02:43:47.147Z,0.00
2019-05-16T02:44:46.980Z,0.00
2019-05-16T02:45:46.914Z,0.00
2019-05-16T02:46:46.960Z,0.00
2019-05-16T02:47:46.757Z,0.00
2019-05-16T02:48:46.645Z,0.00
2019-05-16T02:49:46.784Z,0.00
2019-05-16T02:50:46.473Z,0.00
2019-05-16T02:51:46.394Z,0.00
2019-05-16T02:52:46.385Z,0.00
2019-05-16T02:53:46.240Z,0.00
2019-05-16T02:54:46.137Z,0.00
2019-05-16T02:55:46.199Z,0.00
2019-05-16T02:56:45.976Z,0.00
2019-05-16T02:57:46.011Z,0.00
2019-05-16T02:58:45.816Z,0.00
2019-05-16T02:59:45.716Z,0.00
2019-05-16T03:00:45.823Z,0.00
2019-05-16T03:01:45.553Z,0.00
2019-05-16T03:02:45.464Z,0.00
2019-05-16T03:03:45.468Z,0.00
2019-05-16T03:04:45.298Z,0.00
2019-05-16T03:05:45.219Z,0.00
2019-05-16T03:06:45.253Z,0.00
2019-05-16T03:07:47.416Z,0.00
2019-05-16T03:08:44.976Z,0.00
2019-05-16T03:09:44.893Z,0.00
2019-05-16T03:10:44.797Z,0.00
2019-05-16T03:11:44.876Z,0.00
2019-05-16T03:12:44.625Z,0.00
2019-05-16T03:13:44.661Z,0.00
2019-05-16T03:14:44.481Z,0.00
2019-05-16T03:15:44.374Z,0.00
2019-05-16T03:16:44.294Z,0.00
2019-05-16T03:17:44.312Z,0.00
2019-05-16T03:18:44.134Z,0.00
2019-05-16T03:19:44.052Z,0.00
2019-05-16T03:20:43.958Z,0.00
2019-05-16T03:21:43.919Z,0.00
2019-05-16T03:22:43.784Z,0.00
2019-05-16T03:23:43.708Z,0.00
2019-05-16T03:24:43.761Z,0.00
2019-05-16T03:25:43.535Z,0.00
2019-05-16T03:26:43.539Z,0.00
2019-05-16T03:27:43.365Z,0.00
2019-05-16T03:28:43.351Z,0.00
2019-05-16T03:29:43.209Z,0.00
2019-05-16T03:30:44.952Z,0.00
2019-05-16T03:31:45.143Z,5.63
2019-05-16T03:32:45.662Z,5.63
2019-05-16T03:33:50.345Z,5.63
2019-05-16T03:34:44.456Z,5.63
2019-05-16T03:35:44.878Z,5.63
2019-05-16T03:36:43.823Z,5.63
2019-05-16T03:37:55.058Z,5.63
2019-05-16T03:38:42.597Z,5.63
2019-05-16T03:39:42.519Z,11.25
2019-05-16T03:40:42.303Z,11.25
2019-05-16T03:41:42.407Z,11.25
2019-05-16T03:42:42.121Z,11.25
2019-05-16T03:43:42.032Z,11.25
2019-05-16T03:44:42.027Z,16.88
2019-05-16T03:45:42.011Z,16.88
2019-05-16T03:46:41.773Z,16.88
2019-05-16T03:47:42.889Z,22.50
2019-05-16T03:48:41.605Z,22.50
2019-05-16T03:49:42.174Z,22.50
2019-05-16T03:50:41.486Z,28.13
2019-05-16T03:51:41.770Z,28.13
2019-05-16T03:52:43.658Z,28.13
2019-05-16T03:53:41.261Z,33.75
2019-05-16T03:54:41.982Z,33.75
2019-05-16T03:55:41.210Z,39.38
2019-05-16T03:56:41.090Z,39.38
2019-05-16T03:57:41.756Z,45.00
2019-05-16T03:58:41.737Z,50.63
2019-05-16T03:59:41.133Z,56.25
2019-05-16T04:00:45.393Z,56.25
2019-05-16T04:01:41.123Z,61.88
2019-05-16T04:02:42.068Z,67.50
2019-05-16T04:03:41.205Z,67.50
2019-05-16T04:04:41.675Z,73.13
2019-05-16T04:05:41.332Z,73.13
2019-05-16T04:06:41.562Z,78.75
2019-05-16T04:07:41.453Z,84.38
2019-05-16T04:08:41.255Z,84.38
2019-05-16T04:09:41.217Z,90.00
2019-05-16T04:10:40.932Z,90.00
2019-05-16T04:11:42.494Z,95.63
2019-05-16T04:12:42.017Z,95.63
2019-05-16T04:13:41.182Z,101.25
2019-05-16T04:14:40.913Z,106.88
2019-05-16T04:15:40.739Z,112.50
2019-05-16T04:16:41.463Z,112.50
2019-05-16T04:17:41.190Z,112.50
2019-05-16T04:18:41.979Z,118.13
2019-05-16T04:19:41.545Z,123.75
2019-05-16T04:20:40.577Z,123.75
2019-05-16T04:21:42.072Z,135.00
2019-05-16T04:22:40.795Z,135.00
2019-05-16T04:23:41.691Z,135.00
2019-05-16T04:24:41.568Z,140.63
2019-05-16T04:25:41.070Z,146.25
2019-05-16T04:26:40.948Z,146.25
2019-05-16T04:27:41.252Z,151.88
2019-05-16T04:28:41.181Z,157.50
2019-05-16T04:29:40.837Z,157.50
2019-05-16T04:30:41.317Z,163.13
2019-05-16T04:31:41.060Z,168.75
2019-05-16T04:32:37.921Z,174.38
2019-05-16T04:33:41.192Z,185.63
2019-05-16T04:34:37.759Z,191.25
2019-05-16T04:35:40.960Z,202.50
2019-05-16T04:36:40.486Z,213.75
2019-05-16T04:37:37.505Z,213.75
2019-05-16T04:38:42.814Z,225.00
2019-05-16T04:39:37.428Z,236.25
2019-05-16T04:40:38.704Z,241.88
2019-05-16T04:41:40.703Z,247.50
2019-05-16T04:42:37.147Z,253.13
2019-05-16T04:43:37.002Z,253.13
2019-05-16T04:44:36.919Z,253.13
2019-05-16T04:45:36.874Z,253.13
2019-05-16T04:46:36.769Z,258.75
2019-05-16T04:47:36.774Z,253.13
2019-05-16T04:48:36.582Z,258.75
2019-05-16T04:49:36.586Z,258.75
2019-05-16T04:50:36.421Z,258.75
2019-05-16T04:51:36.428Z,264.38
2019-05-16T04:52:36.253Z,264.38
2019-05-16T04:53:36.174Z,270.00
2019-05-16T04:54:36.087Z,270.00
2019-05-16T04:55:36.016Z,275.63
2019-05-16T04:56:35.929Z,286.88
2019-05-16T04:57:35.925Z,292.50
2019-05-16T04:58:35.751Z,298.13
2019-05-16T04:59:35.736Z,303.75
2019-05-16T05:00:35.589Z,315.00
2019-05-16T05:01:35.574Z,315.00
2019-05-16T05:02:35.419Z,320.63
2019-05-16T05:03:35.349Z,326.25
2019-05-16T05:04:35.250Z,331.88
2019-05-16T05:05:35.271Z,337.50
2019-05-16T05:06:35.102Z,337.50
2019-05-16T05:07:35.075Z,348.75
2019-05-16T05:08:49.329Z,343.13
2019-05-16T05:09:34.844Z,343.13
2019-05-16T05:10:34.752Z,343.13
2019-05-16T05:11:41.258Z,348.75
2019-05-16T05:12:34.586Z,348.75
2019-05-16T05:13:34.504Z,343.13
2019-05-16T05:14:34.418Z,337.50
2019-05-16T05:15:34.414Z,331.88
2019-05-16T05:16:34.279Z,331.88
2019-05-16T05:17:34.166Z,326.25
2019-05-16T05:18:34.130Z,320.63
2019-05-16T05:19:34.013Z,315.00
2019-05-16T05:20:33.927Z,309.38
2019-05-16T05:21:33.877Z,309.38
2019-05-16T05:22:33.783Z,315.00
2019-05-16T05:23:33.673Z,326.25
2019-05-16T05:24:33.592Z,343.13
2019-05-16T05:25:33.516Z,354.38
2019-05-16T05:26:33.426Z,371.25
2019-05-16T05:27:33.359Z,382.50
2019-05-16T05:28:33.256Z,382.50
2019-05-16T05:29:33.174Z,371.25
2019-05-16T05:30:33.100Z,365.63
2019-05-16T05:31:35.222Z,360.00
2019-05-16T05:32:32.933Z,360.00
2019-05-16T05:33:32.843Z,348.75
2019-05-16T05:34:32.756Z,343.13
2019-05-16T05:35:32.673Z,337.50
2019-05-16T05:36:32.598Z,331.88
2019-05-16T05:37:32.520Z,331.88
2019-05-16T05:38:32.436Z,337.50
2019-05-16T05:39:32.343Z,337.50
2019-05-16T05:40:32.265Z,343.13
2019-05-16T05:41:32.170Z,348.75
2019-05-16T05:42:32.110Z,348.75
2019-05-16T05:43:32.003Z,354.38
2019-05-16T05:44:31.925Z,360.00
2019-05-16T05:45:31.847Z,382.50
2019-05-16T05:46:31.849Z,382.50
2019-05-16T05:47:31.698Z,388.13
2019-05-16T05:48:31.596Z,405.00
2019-05-16T05:49:31.509Z,421.88
2019-05-16T05:50:31.440Z,433.13
2019-05-16T05:51:31.373Z,444.38
2019-05-16T05:52:31.278Z,455.63
2019-05-16T05:53:31.219Z,461.25
2019-05-16T05:54:31.102Z,466.88
2019-05-16T05:55:31.483Z,466.88
2019-05-16T05:56:30.937Z,466.88
2019-05-16T05:57:30.859Z,461.25
2019-05-16T05:58:31.102Z,455.63
2019-05-16T05:59:30.798Z,450.00
2019-05-16T06:00:30.607Z,433.13
2019-05-16T06:01:31.471Z,427.50
2019-05-16T06:02:30.966Z,421.88
2019-05-16T06:03:32.914Z,416.25
2019-05-16T06:04:30.616Z,410.63
2019-05-16T06:05:30.603Z,410.63
2019-05-16T06:06:30.484Z,410.63
2019-05-16T06:07:30.210Z,416.25
2019-05-16T06:08:30.561Z,421.88
2019-05-16T06:09:32.853Z,438.75
2019-05-16T06:10:30.432Z,444.38
2019-05-16T06:11:30.765Z,455.63
2019-05-16T06:12:30.282Z,466.88
2019-05-16T06:13:30.993Z,466.88
2019-05-16T06:14:30.653Z,466.88
2019-05-16T06:15:30.640Z,461.25
2019-05-16T06:16:30.824Z,461.25
2019-05-16T06:17:30.692Z,461.25
2019-05-16T06:18:30.617Z,455.63
2019-05-16T06:19:29.752Z,450.00
2019-05-16T06:20:30.796Z,444.38
2019-05-16T06:21:33.032Z,444.38
2019-05-16T06:22:29.894Z,444.38
2019-05-16T06:23:31.068Z,461.25
2019-05-16T06:24:30.507Z,461.25
2019-05-16T06:25:31.584Z,483.75
2019-05-16T06:26:30.334Z,517.50
2019-05-16T06:27:30.226Z,556.88
2019-05-16T06:28:30.573Z,613.13
2019-05-16T06:29:30.789Z,680.63
2019-05-16T06:30:30.401Z,736.88
2019-05-16T06:31:31.084Z,793.13
2019-05-16T06:32:30.232Z,855.00
2019-05-16T06:33:30.329Z,888.75
2019-05-16T06:34:30.029Z,933.75
2019-05-16T06:35:29.928Z,984.38
2019-05-16T06:36:27.629Z,1029.38
2019-05-16T06:37:27.598Z,1057.50
2019-05-16T06:38:29.693Z,1085.63
2019-05-16T06:39:39.175Z,1085.63
2019-05-16T06:40:29.435Z,1102.50
2019-05-16T06:41:27.209Z,1136.25
2019-05-16T06:42:27.227Z,1170.00
2019-05-16T06:43:27.079Z,1186.88
2019-05-16T06:44:26.962Z,1181.25
2019-05-16T06:45:26.887Z,1147.50
2019-05-16T06:46:26.803Z,1130.63
2019-05-16T06:47:26.724Z,1119.38
2019-05-16T06:48:26.683Z,1096.88
2019-05-16T06:49:26.559Z,1074.38
2019-05-16T06:50:26.472Z,1096.88
2019-05-16T06:51:26.467Z,1147.50
2019-05-16T06:52:26.314Z,1203.75
2019-05-16T06:53:26.253Z,1276.88
2019-05-16T06:54:26.149Z,1327.50
2019-05-16T06:55:26.284Z,1344.38
2019-05-16T06:56:25.989Z,1355.63
2019-05-16T06:57:26.094Z,1350.00
2019-05-16T06:58:25.839Z,1338.75
2019-05-16T06:59:25.903Z,1310.63
2019-05-16T07:00:26.552Z,1293.75
2019-05-16T07:01:25.582Z,1260.00
2019-05-16T07:02:30.617Z,1237.50
2019-05-16T07:03:25.432Z,1215.00
2019-05-16T07:04:25.340Z,1170.00
2019-05-16T07:05:25.327Z,1108.13
2019-05-16T07:06:47.666Z,1040.63
2019-05-16T07:07:25.112Z,961.88
2019-05-16T07:08:25.175Z,883.13
2019-05-16T07:09:24.941Z,843.75
2019-05-16T07:10:24.858Z,838.13
2019-05-16T07:11:24.955Z,826.88
2019-05-16T07:12:24.703Z,815.63
2019-05-16T07:13:24.767Z,804.38
2019-05-16T07:14:28.154Z,798.75
2019-05-16T07:15:24.576Z,793.13
2019-05-16T07:16:24.370Z,776.25
2019-05-16T07:17:24.383Z,765.00
2019-05-16T07:18:24.207Z,770.63
2019-05-16T07:19:24.224Z,787.50
2019-05-16T07:20:24.048Z,821.25
2019-05-16T07:21:23.962Z,843.75
2019-05-16T07:22:23.888Z,871.88
2019-05-16T07:23:24.014Z,888.75
2019-05-16T07:24:23.731Z,905.63
2019-05-16T07:25:23.823Z,911.25
2019-05-16T07:26:23.563Z,911.25
2019-05-16T07:27:23.471Z,911.25
2019-05-16T07:28:23.443Z,911.25
2019-05-16T07:29:23.323Z,916.88
2019-05-16T07:30:23.234Z,933.75
2019-05-16T07:31:23.247Z,945.00
2019-05-16T07:32:23.066Z,956.25
2019-05-16T07:33:23.060Z,984.38
2019-05-16T07:34:22.916Z,1006.88
2019-05-16T07:35:22.867Z,1023.75
2019-05-16T07:36:22.741Z,1035.00
2019-05-16T07:37:22.880Z,1040.63
2019-05-16T07:38:22.576Z,1040.63
2019-05-16T07:39:22.720Z,1040.63
2019-05-16T07:40:26.499Z,1035.00
2019-05-16T07:41:22.495Z,1018.13
2019-05-16T07:42:22.259Z,995.63
2019-05-16T07:43:22.304Z,984.38
2019-05-16T07:44:22.109Z,978.75
2019-05-16T07:45:22.111Z,1001.25
2019-05-16T07:46:21.926Z,1006.88
2019-05-16T07:47:21.844Z,1012.50
2019-05-16T07:48:22.310Z,1006.88
2019-05-16T07:49:21.702Z,1001.25
2019-05-16T07:50:21.596Z,990.00
2019-05-16T07:51:21.741Z,984.38
2019-05-16T07:52:21.446Z,978.75
2019-05-16T07:53:21.777Z,973.13
2019-05-16T07:54:21.506Z,990.00
2019-05-16T07:55:21.358Z,1012.50
2019-05-16T07:56:21.113Z,1046.25
2019-05-16T07:57:22.952Z,1085.63
2019-05-16T07:58:22.160Z,1113.75
2019-05-16T07:59:21.005Z,1136.25
2019-05-16T08:00:21.817Z,1136.25
2019-05-16T08:01:20.790Z,1125.00
2019-05-16T08:02:21.101Z,1119.38
2019-05-16T08:03:20.594Z,1136.25
2019-05-16T08:04:20.479Z,1153.13
2019-05-16T08:05:21.196Z,1153.13
2019-05-16T08:06:20.330Z,1119.38
2019-05-16T08:07:20.412Z,1057.50
2019-05-16T08:09:21.143Z,922.50
2019-05-16T08:10:35.992Z,866.25
2019-05-16T08:11:23.384Z,821.25
2019-05-16T08:12:25.455Z,781.88
2019-05-16T08:13:21.082Z,731.25
2019-05-16T08:14:21.208Z,691.88
2019-05-16T08:15:21.253Z,675.00
2019-05-16T08:16:20.772Z,646.88
2019-05-16T08:17:21.657Z,624.38
2019-05-16T08:18:21.276Z,590.63
2019-05-16T08:19:20.007Z,562.50
2019-05-16T08:20:21.285Z,528.75
2019-05-16T08:21:20.227Z,495.00
2019-05-16T08:22:19.011Z,472.50
2019-05-16T08:23:21.883Z,450.00
2019-05-16T08:24:20.503Z,450.00
2019-05-16T08:25:20.394Z,438.75
2019-05-16T08:26:21.839Z,455.63
2019-05-16T08:27:20.846Z,466.88
2019-05-16T08:28:21.524Z,489.38
2019-05-16T08:29:21.796Z,506.25
2019-05-16T08:30:21.048Z,506.25
2019-05-16T08:31:21.402Z,495.00
2019-05-16T08:32:22.643Z,472.50
2019-05-16T08:33:21.414Z,450.00
2019-05-16T08:34:20.793Z,433.13
2019-05-16T08:35:20.505Z,421.88
2019-05-16T08:36:20.105Z,421.88
2019-05-16T08:37:34.000Z,433.13
2019-05-16T08:38:21.124Z,450.00
2019-05-16T08:39:17.613Z,472.50
2019-05-16T08:40:21.075Z,483.75
2019-05-16T08:41:21.739Z,495.00
2019-05-16T08:42:20.600Z,495.00
2019-05-16T08:43:21.414Z,489.38
2019-05-16T08:44:21.307Z,483.75
2019-05-16T08:45:17.146Z,472.50
2019-05-16T08:46:20.017Z,466.88
2019-05-16T08:47:16.962Z,466.88
2019-05-16T08:48:16.999Z,472.50
2019-05-16T08:49:16.793Z,478.13
2019-05-16T08:50:12.168Z,990.00
2019-05-16T08:50:16.843Z,478.13
2019-05-16T08:51:16.636Z,478.13
2019-05-16T08:52:16.631Z,489.38
2019-05-16T08:53:16.622Z,495.00
2019-05-16T08:54:16.515Z,495.00
2019-05-16T08:55:16.331Z,483.75
2019-05-16T08:56:16.437Z,472.50
2019-05-16T08:58:16.247Z,455.63
2019-05-16T08:59:15.978Z,455.63
2019-05-16T09:00:16.056Z,455.63
2019-05-16T09:01:15.819Z,466.88
2019-05-16T09:02:15.730Z,455.63
2019-05-16T09:03:15.867Z,444.38
2019-05-16T09:04:15.569Z,444.38
2019-05-16T09:05:15.486Z,444.38
2019-05-16T09:06:15.509Z,450.00
2019-05-16T09:07:15.314Z,444.38
2019-05-16T09:08:15.291Z,461.25
2019-05-16T09:09:29.484Z,478.13
2019-05-16T09:10:35.524Z,461.25
2019-05-16T09:10:45.712Z,511.88
2019-05-16T09:11:33.003Z,556.88
2019-05-16T09:12:17.178Z,630.00
2019-05-16T09:13:16.806Z,714.38
2019-05-16T09:14:17.168Z,826.88
2019-05-16T09:15:17.070Z,939.38
2019-05-16T09:16:14.587Z,1035.00
2019-05-16T09:17:14.531Z,1108.13
2019-05-16T09:18:17.562Z,1198.13
2019-05-16T09:19:16.851Z,1248.75
2019-05-16T09:20:17.285Z,1310.63
2019-05-16T09:21:14.191Z,1366.88
2019-05-16T09:22:14.087Z,1406.25
2019-05-16T09:23:14.161Z,1406.25
2019-05-16T09:24:13.919Z,1400.63
2019-05-16T09:25:13.862Z,1372.50
2019-05-16T09:26:18.720Z,1327.50
2019-05-16T09:27:13.675Z,1282.50
2019-05-16T09:28:13.596Z,1248.75
2019-05-16T09:29:13.586Z,1237.50
2019-05-16T09:30:13.437Z,1260.00
2019-05-16T09:31:13.367Z,1288.13
2019-05-16T09:32:17.952Z,1310.63
2019-05-16T09:33:13.199Z,1321.88
2019-05-16T09:34:13.210Z,1350.00
2019-05-16T09:35:13.029Z,1389.38
2019-05-16T09:36:12.968Z,1417.50
2019-05-16T09:37:12.879Z,1462.50
2019-05-16T09:38:12.825Z,1485.00
2019-05-16T09:39:12.714Z,1490.63
2019-05-16T09:40:12.628Z,1479.38
2019-05-16T09:41:12.571Z,1468.13
2019-05-16T09:42:12.649Z,1485.00
2019-05-16T09:43:12.387Z,1518.75
2019-05-16T09:44:12.304Z,1524.38
2019-05-16T09:45:12.254Z,1473.75
2019-05-16T09:46:12.142Z,1428.75
2019-05-16T09:47:12.083Z,1344.38
2019-05-16T09:48:12.074Z,1288.13
2019-05-16T09:49:19.441Z,1265.63
2019-05-16T09:50:11.823Z,1237.50
2019-05-16T09:51:11.884Z,1231.88
2019-05-16T09:52:11.675Z,1248.75
2019-05-16T09:53:11.697Z,1271.25
2019-05-16T09:54:11.499Z,1310.63
2019-05-16T09:55:11.504Z,1350.00
2019-05-16T09:56:11.342Z,1378.13
2019-05-16T09:57:11.268Z,1400.63
2019-05-16T09:58:11.323Z,1434.38
2019-05-16T09:59:11.105Z,1451.25
2019-05-16T10:00:11.018Z,1456.88
2019-05-16T10:01:11.134Z,1485.00
2019-05-16T10:02:10.868Z,1575.00
2019-05-16T10:03:10.811Z,1653.75
2019-05-16T10:04:11.629Z,1698.75
2019-05-16T10:05:13.193Z,1805.63
2019-05-16T10:06:10.533Z,1957.50
2019-05-16T10:07:10.590Z,2137.50
2019-05-16T10:08:10.374Z,2323.13
2019-05-16T10:09:10.364Z,2407.50
2019-05-16T10:10:10.213Z,2435.63
2019-05-16T10:11:10.175Z,2587.50
2019-05-16T10:12:15.364Z,2604.38
2019-05-16T10:13:09.977Z,2373.75
2019-05-16T10:14:09.992Z,2289.38
2019-05-16T10:15:09.815Z,2261.25
2019-05-16T10:16:09.743Z,2193.75
2019-05-16T10:17:09.838Z,2148.75
2019-05-16T10:18:09.583Z,2176.88
2019-05-16T10:19:09.613Z,2323.13
2019-05-16T10:20:09.430Z,2413.13
2019-05-16T10:21:09.426Z,2497.50
2019-05-16T10:22:09.290Z,3121.88
2019-05-16T10:23:14.702Z,4353.75
2019-05-16T10:24:09.105Z,3526.88
2019-05-16T10:25:09.448Z,2739.38
2019-05-16T10:26:08.948Z,2581.88
2019-05-16T10:27:08.871Z,2452.50
2019-05-16T10:28:08.907Z,2463.75
2019-05-16T10:29:11.008Z,3931.88
2019-05-16T10:30:08.903Z,2801.25
2019-05-16T10:31:08.563Z,2936.25
2019-05-16T10:32:08.515Z,3346.88
2019-05-16T10:33:08.420Z,3470.63
2019-05-16T10:34:08.325Z,3003.75
2019-05-16T10:35:08.263Z,2868.75
2019-05-16T10:36:08.611Z,2626.88
2019-05-16T10:37:08.307Z,2525.63
2019-05-16T10:38:08.028Z,2418.75
2019-05-16T10:39:07.999Z,2385.00
2019-05-16T10:40:07.880Z,2480.63
2019-05-16T10:41:07.920Z,2536.88
2019-05-16T10:42:21.992Z,2379.38
2019-05-16T10:43:07.650Z,2311.88
2019-05-16T10:44:07.731Z,2278.13
2019-05-16T10:45:08.585Z,2261.25
2019-05-16T10:46:07.392Z,2278.13
2019-05-16T10:47:07.700Z,2334.38
2019-05-16T10:48:07.247Z,2486.25
2019-05-16T10:49:07.358Z,2795.63
2019-05-16T10:50:07.078Z,2593.13
2019-05-16T10:51:07.856Z,2851.88
2019-05-16T10:52:07.296Z,3397.50
2019-05-16T10:53:25.832Z,3971.25
2019-05-16T10:54:13.402Z,5405.63
2019-05-16T10:55:08.155Z,3543.75
2019-05-16T10:56:07.791Z,4140.00
2019-05-16T10:57:08.146Z,3043.13
2019-05-16T10:58:07.359Z,3397.50
2019-05-16T10:59:50.218Z,3161.25
2019-05-16T11:00:16.099Z,2964.38
2019-05-16T11:01:18.892Z,2992.50
2019-05-16T11:02:07.508Z,2469.38
2019-05-16T11:03:06.648Z,2418.75
2019-05-16T11:04:07.533Z,2520.00
2019-05-16T11:05:24.594Z,2553.75
2019-05-16T11:06:08.941Z,2666.25
2019-05-16T11:07:05.835Z,2660.63
2019-05-16T11:08:08.242Z,2891.25
2019-05-16T11:09:06.496Z,4100.63
2019-05-16T11:10:07.057Z,3600.00
2019-05-16T11:11:06.664Z,3780.00
2019-05-16T11:12:05.393Z,3026.25
2019-05-16T11:13:07.880Z,3015.00
2019-05-16T11:14:08.990Z,2885.63
2019-05-16T11:15:07.820Z,2902.50
2019-05-16T11:16:07.026Z,4888.13
2019-05-16T11:17:11.754Z,5191.88
2019-05-16T11:18:06.842Z,3346.88
2019-05-16T11:19:17.919Z,3161.25
2019-05-16T11:20:04.780Z,4696.88
2019-05-16T11:21:04.904Z,4871.25
2019-05-16T11:22:04.627Z,4854.38
2019-05-16T11:23:07.698Z,3954.38
2019-05-16T11:24:06.304Z,3189.38
2019-05-16T11:25:18.446Z,3751.88
2019-05-16T11:26:04.331Z,4393.13
2019-05-16T11:27:04.329Z,4033.13
2019-05-16T11:28:07.014Z,5259.38
2019-05-16T11:29:04.171Z,4758.75
2019-05-16T11:30:04.123Z,3774.38
2019-05-16T11:31:04.232Z,4162.50
2019-05-16T11:32:03.896Z,4280.63
2019-05-16T11:33:03.962Z,2705.63
2019-05-16T11:34:03.754Z,2261.25
2019-05-16T11:35:03.771Z,2683.13
2019-05-16T11:36:03.597Z,5304.38
2019-05-16T11:37:03.519Z,3853.13
2019-05-16T11:38:03.444Z,2677.50
2019-05-16T11:39:03.418Z,2638.13
2019-05-16T11:40:03.307Z,2863.13
2019-05-16T11:41:03.229Z,2902.50
2019-05-16T11:42:03.201Z,2953.13
2019-05-16T11:43:09.364Z,2660.63
2019-05-16T11:44:03.026Z,2694.38
2019-05-16T11:45:03.019Z,2688.75
2019-05-16T11:46:02.863Z,2733.75
2019-05-16T11:47:02.835Z,2728.13
2019-05-16T11:48:02.831Z,2536.88
2019-05-16T11:49:02.651Z,2379.38
2019-05-16T11:50:02.639Z,2351.25
2019-05-16T11:51:02.491Z,2441.25
2019-05-16T11:52:02.448Z,2418.75
2019-05-16T11:53:02.338Z,2334.38
2019-05-16T11:54:02.493Z,2250.00
2019-05-16T11:55:02.197Z,2115.00
2019-05-16T11:56:02.388Z,2075.63
2019-05-16T11:57:02.033Z,2047.50
2019-05-16T11:58:01.963Z,2058.75
2019-05-16T11:59:02.125Z,2047.50
2019-05-16T12:00:01.824Z,2070.00
2019-05-16T12:01:01.735Z,2098.13
2019-05-16T12:02:01.693Z,2103.75
2019-05-16T12:03:01.576Z,2120.63
2019-05-16T12:04:02.563Z,2227.50
2019-05-16T12:05:01.452Z,2362.50
2019-05-16T12:06:01.518Z,2958.75
2019-05-16T12:07:01.267Z,3560.63
2019-05-16T12:08:01.332Z,3324.38
2019-05-16T12:09:01.153Z,2773.13
2019-05-16T12:10:01.148Z,2548.13
2019-05-16T12:11:00.967Z,2435.63
2019-05-16T12:12:04.214Z,2441.25
2019-05-16T12:13:00.949Z,2469.38
2019-05-16T12:14:00.732Z,2390.63
2019-05-16T12:15:00.673Z,2390.63
2019-05-16T12:16:00.831Z,2266.88
2019-05-16T12:17:00.495Z,2250.00
2019-05-16T12:18:04.781Z,2323.13
2019-05-16T12:19:00.372Z,3498.75
2019-05-16T12:20:00.302Z,2767.50
2019-05-16T12:21:00.190Z,2188.13
2019-05-16T12:22:00.402Z,2092.50
2019-05-16T12:23:00.049Z,2019.38
2019-05-16T12:23:59.963Z,1906.88
2019-05-16T12:25:00.040Z,1850.63
2019-05-16T12:26:00.290Z,1811.25
2019-05-16T12:27:00.771Z,1777.50
2019-05-16T12:27:59.819Z,1783.13
2019-05-16T12:28:59.580Z,1839.38
2019-05-16T12:29:59.516Z,1935.00
2019-05-16T12:30:59.631Z,2058.75
2019-05-16T12:32:02.718Z,2238.75
2019-05-16T12:32:59.256Z,2345.63
2019-05-16T12:33:59.886Z,2463.75